METAR Data
IDs: Format: Raw Decoded Include TAF

Data at: 0437 UTC 20 Oct 2018

PAEN 200353Z 16007KT 10SM SCT015 BKN038 OVC048 06/06 A2911 RMK AO2 SLP859 T00610056
PAEN 200253Z 20003KT 10SM OVC039 06/06 A2908 RMK AO2 SLP848 60005 T00610061 53023
PAEN 200153Z 10005KT 10SM OVC065 07/06 A2904 RMK AO2 RAE49 SLP835 P0001 T00670061
PAEN 200053Z 31005KT 6SM -RA BR OVC041 07/06 A2903 RMK AO2 SLP832 P0004 T00670061
PAEN 192353Z 34006KT 10SM -RA OVC033 07/06 A2901 RMK AO2 SLP825 P0004 60014 T00670056 10100 20067 53016
PAEN 192253Z 34012KT 10SM -RA BKN038 OVC049 07/05 A2898 RMK AO2 SLP816 P0003 T00670050
PAEN 192153Z 34014KT 10SM -RA BKN042 OVC050 07/05 A2897 RMK AO2 SLP812 P0006 T00670050
PAEN 192053Z 36016G24KT 7SM -RA OVC035 07/03 A2896 RMK AO2 PK WND 01026/2022 RAB19 SLP809 P0001 60001 T00720033 55005
PAEN 191953Z 02016G23KT 10SM OVC075 09/00 A2894 RMK AO2 PK WND 01027/1924 SLP801 T00940000
PAEN 191853Z 36013KT 10SM OVC075 09/00 A2894 RMK AO2 SLP803 T00940000
PAEN 191753Z 36017G26KT 10SM OVC100 09/M01 A2898 RMK AO2 PK WND 36031/1659 SLP815 T00941011 10094 20083 56059
PAEN 191653Z 36023G30KT 10SM OVC110 09/00 A2901 RMK AO2 PK WND 36032/1554 SLP824 T00890000
PAEN 191553Z 01022G32KT 10SM FEW120 09/01 A2908 RMK AO2 PK WND 01032/1546 SLP849 T00890006
PAEN 191453Z AUTO 01019G26KT 10SM CLR 08/01 A2915 RMK AO2 PK WND 36030/1405 SLP874 T00830011 58083 TSNO
PAEN 191353Z AUTO 36020G29KT 10SM OVC100 08/02 A2924 RMK AO2 PK WND 36032/1306 PRESFR SLP903 T00830017 TSNO
PAEN 191253Z AUTO 36022G32KT 10SM BKN075 BKN090 OVC100 08/02 A2932 RMK AO2 PK WND 01032/1251 PRESFR SLP930 T00830022 TSNO
PAEN 191153Z AUTO 02018G24KT 10SM BKN070 OVC085 08/03 A2940 RMK AO2 PK WND 01028/1135 SLP957 60000 70001 T00830033 10089 20078 58059 TSNO
PAEN 191053Z AUTO 01016G23KT 10SM OVC085 08/03 A2946 RMK AO2 PK WND 01027/1036 SLP977 T00830033 TSNO
PAEN 190953Z AUTO 01017G26KT 10SM OVC080 08/04 A2952 RMK AO2 PK WND 01026/0944 SLP997 T00830039 TSNO
PAEN 190853Z AUTO 02018G24KT 10SM OVC090 08/05 A2957 RMK AO2 SLP016 60000 T00780050 401170039 56039 TSNO
PAEN 190753Z AUTO 03014KT 10SM OVC090 08/06 A2962 RMK AO2 RAB0655E07 SLP031 P0000 T00780061 TSNO
PAEN 190653Z AUTO 36020G27KT 10SM OVC055 08/06 A2964 RMK AO2 PK WND 01027/0653 RAB0559E47 SLP040 P0000 T00780061 TSNO
PAEN 190553Z AUTO 01019G25KT 10SM BKN055 OVC070 08/06 A2969 RMK AO2 PRESFR SLP056 T00830061 10117 20072 58030 TSNO
PAEN 190453Z 02015KT 10SM OVC070 08/04 A2973 RMK AO2 SLP070 T00780044
PAEN 190353Z 03009KT 10SM CLR 08/04 A2975 RMK AO2 SLP077 T00780044
PAEN 190253Z 04007KT 10SM CLR 08/05 A2978 RMK AO2 SLP086 T00830050 58020
PAEN 190153Z 06007KT 10SM OVC100 11/04 A2980 RMK AO2 SLP094 T01060044
PAEN 190053Z 07012KT 10SM BKN100 12/03 A2982 RMK AO2 SLP100 T01170033
PAEN 182353Z 04006KT 10SM OVC070 11/05 A2984 RMK AO2 SLP107 T01060050 10111 20050 58012
PAEN 182253Z 01006KT 10SM SCT070 BKN095 11/07 A2986 RMK AO2 SLP112 T01060067
PAEN 182153Z 02007KT 10SM FEW070 BKN090 11/07 A2987 RMK AO2 SLP117 T01110072
PAEN 182053Z 01005KT 10SM OVC085 09/07 A2988 RMK AO2 SLP119 T00890067 51008
PAEN 181953Z 35004KT 10SM BKN070 07/06 A2988 RMK AO2 SLP119 T00670056
PAEN 181853Z 00000KT 10SM FEW055 SCT075 OVC100 06/05 A2987 RMK AO2 SLP117 T00610050
PAEN 181753Z 02004KT 10SM BKN060 OVC075 05/04 A2985 RMK AO2 SLP111 60001 T00500044 10061 20039 53010
PAEN 181653Z 02005KT 10SM OVC080 04/04 A2983 RMK AO2 SLP105 T00390039